This is the latest recevied weather packets stored in our database for station/object OE7BJT-13. If no packets are shown the sender has not sent any weather packets the latest 10 day(s).
| Time | Temp. | Humidity | Pressure | Rain* | Wind** | Luminosity | Snow |
|---|---|---|---|---|---|---|---|
| 1777244180 | 8.89° C | 75% | 1021 hPa | - | - | - | - |
| 1777243574 | 9.44° C | 71% | 1021 hPa | - | - | - | - |
| 1777242968 | 8.89° C | 75% | 1021 hPa | - | - | - | - |
| 1777242363 | 9.44° C | 73% | 1021 hPa | - | - | - | - |
| 1777241757 | 9.44° C | 73% | 1021 hPa | - | - | - | - |
| 1777241152 | 10.56° C | 67% | 1021 hPa | - | - | - | - |
| 1777240546 | 10.56° C | 70% | 1021 hPa | - | - | - | - |
| 1777239940 | 10.56° C | 67% | 1021 hPa | - | - | - | - |
| 1777238729 | 11.67° C | 66% | 1021 hPa | - | - | - | - |
| 1777238124 | 12.22° C | 57% | 1021 hPa | - | - | - | - |
| 1777237518 | 12.22° C | 63% | 1021 hPa | - | - | - | - |
| 1777236912 | 12.78° C | 57% | 1021 hPa | - | - | - | - |
| 1777236307 | 12.78° C | 58% | 1021 hPa | - | - | - | - |
| 1777235701 | 12.78° C | 57% | 1021 hPa | - | - | - | - |
| 1777235096 | 13.33° C | 52% | 1021 hPa | - | - | - | - |
| 1777234490 | 13.33° C | 54% | 1021 hPa | - | - | - | - |
| 1777233885 | 13.33° C | 54% | 1021 hPa | - | - | - | - |
| 1777233279 | 13.33° C | 54% | 1021 hPa | - | - | - | - |
| 1777232068 | 13.89° C | 47% | 1021 hPa | - | - | - | - |
| 1777230856 | 15° C | 41% | 1021 hPa | - | - | - | - |
| 1777230251 | 15.56° C | 40% | 1020 hPa | - | - | - | - |
| 1777229645 | 15.56° C | 38% | 1020 hPa | - | - | - | - |
| 1777229040 | 16.11° C | 36% | 1020 hPa | - | - | - | - |
| 1777228434 | 16.11° C | 37% | 1020 hPa | - | - | - | - |
| 1777227829 | 16.11° C | 37% | 1020 hPa | - | - | - | - |
* Rain since midnight (hover to see other rain measurements)
** Current wind speed in m/s (hover to see current wind gust speed)